sensor_id;sensor_type;location;lat;lon;timestamp;temperature;humidity
14519;DHT22;7346;50.846;4.388;2022-08-19T00:00:34;22.20;94.00
14519;DHT22;7346;50.846;4.388;2022-08-19T00:03:00;22.10;96.40
14519;DHT22;7346;50.846;4.388;2022-08-19T00:05:27;22.20;96.80
14519;DHT22;7346;50.846;4.388;2022-08-19T00:07:54;22.20;97.80
14519;DHT22;7346;50.846;4.388;2022-08-19T00:10:21;22.10;99.90
14519;DHT22;7346;50.846;4.388;2022-08-19T00:12:52;22.00;99.90
14519;DHT22;7346;50.846;4.388;2022-08-19T00:15:22;22.00;99.90
14519;DHT22;7346;50.846;4.388;2022-08-19T00:17:49;22.00;99.90
14519;DHT22;7346;50.846;4.388;2022-08-19T00:20:19;22.00;99.90
14519;DHT22;7346;50.846;4.388;2022-08-19T00:22:47;21.90;99.90
14519;DHT22;7346;50.846;4.388;2022-08-19T00:25:15;21.80;99.90
14519;DHT22;7346;50.846;4.388;2022-08-19T00:27:42;21.70;99.90
14519;DHT22;7346;50.846;4.388;2022-08-19T00:30:09;21.60;99.90
14519;DHT22;7346;50.846;4.388;2022-08-19T00:32:38;21.60;99.90
14519;DHT22;7346;50.846;4.388;2022-08-19T00:35:07;21.60;99.90
14519;DHT22;7346;50.846;4.388;2022-08-19T00:37:34;21.50;99.90
14519;DHT22;7346;50.846;4.388;2022-08-19T00:40:04;21.50;99.90
14519;DHT22;7346;50.846;4.388;2022-08-19T00:42:31;21.40;99.90
14519;DHT22;7346;50.846;4.388;2022-08-19T00:45:00;21.40;99.90
14519;DHT22;7346;50.846;4.388;2022-08-19T00:47:27;21.40;99.90
14519;DHT22;7346;50.846;4.388;2022-08-19T00:49:57;21.50;99.90
14519;DHT22;7346;50.846;4.388;2022-08-19T00:52:28;21.50;99.90
14519;DHT22;7346;50.846;4.388;2022-08-19T00:54:57;21.50;99.90
14519;DHT22;7346;50.846;4.388;2022-08-19T00:57:28;21.50;99.90
14519;DHT22;7346;50.846;4.388;2022-08-19T00:59:57;21.40;99.90
14519;DHT22;7346;50.846;4.388;2022-08-19T01:02:29;21.30;99.90
14519;DHT22;7346;50.846;4.388;2022-08-19T01:04:59;21.20;99.90
14519;DHT22;7346;50.846;4.388;2022-08-19T01:07:30;21.10;99.90
14519;DHT22;7346;50.846;4.388;2022-08-19T01:10:00;21.10;99.90
14519;DHT22;7346;50.846;4.388;2022-08-19T01:12:28;21.00;99.90
14519;DHT22;7346;50.846;4.388;2022-08-19T01:14:55;21.10;99.90
14519;DHT22;7346;50.846;4.388;2022-08-19T01:17:23;21.20;99.90
14519;DHT22;7346;50.846;4.388;2022-08-19T01:19:50;21.10;99.90
14519;DHT22;7346;50.846;4.388;2022-08-19T01:22:27;21.00;99.90
14519;DHT22;7346;50.846;4.388;2022-08-19T01:24:55;21.00;99.90
14519;DHT22;7346;50.846;4.388;2022-08-19T01:27:22;20.90;99.90
14519;DHT22;7346;50.846;4.388;2022-08-19T01:29:49;20.90;99.90
14519;DHT22;7346;50.846;4.388;2022-08-19T01:32:16;20.80;99.90
14519;DHT22;7346;50.846;4.388;2022-08-19T01:34:45;20.70;99.90
14519;DHT22;7346;50.846;4.388;2022-08-19T01:37:13;20.70;99.90
14519;DHT22;7346;50.846;4.388;2022-08-19T01:39:44;20.70;99.90
14519;DHT22;7346;50.846;4.388;2022-08-19T01:42:11;20.60;99.90
14519;DHT22;7346;50.846;4.388;2022-08-19T01:44:39;20.60;99.90
14519;DHT22;7346;50.846;4.388;2022-08-19T01:47:07;20.50;99.90
14519;DHT22;7346;50.846;4.388;2022-08-19T01:49:36;20.50;99.90
14519;DHT22;7346;50.846;4.388;2022-08-19T01:52:04;20.60;99.90
14519;DHT22;7346;50.846;4.388;2022-08-19T01:54:32;20.60;99.90
14519;DHT22;7346;50.846;4.388;2022-08-19T01:57:08;20.60;99.90
14519;DHT22;7346;50.846;4.388;2022-08-19T01:59:37;20.50;99.90
14519;DHT22;7346;50.846;4.388;2022-08-19T02:02:05;20.50;99.90
14519;DHT22;7346;50.846;4.388;2022-08-19T02:04:33;20.40;99.90
14519;DHT22;7346;50.846;4.388;2022-08-19T02:07:00;20.40;99.90
14519;DHT22;7346;50.846;4.388;2022-08-19T02:09:27;20.40;99.90
14519;DHT22;7346;50.846;4.388;2022-08-19T02:11:54;20.30;99.90
14519;DHT22;7346;50.846;4.388;2022-08-19T02:14:22;20.20;99.90
14519;DHT22;7346;50.846;4.388;2022-08-19T02:16:49;20.20;99.90
14519;DHT22;7346;50.846;4.388;2022-08-19T02:19:16;20.10;99.90
14519;DHT22;7346;50.846;4.388;2022-08-19T02:21:44;20.10;99.90
14519;DHT22;7346;50.846;4.388;2022-08-19T02:24:11;20.00;99.90
14519;DHT22;7346;50.846;4.388;2022-08-19T02:26:38;20.00;99.90
14519;DHT22;7346;50.846;4.388;2022-08-19T02:29:05;20.00;99.90
14519;DHT22;7346;50.846;4.388;2022-08-19T02:31:33;20.00;99.90
14519;DHT22;7346;50.846;4.388;2022-08-19T02:34:01;20.00;99.90
14519;DHT22;7346;50.846;4.388;2022-08-19T02:36:28;20.00;99.90
14519;DHT22;7346;50.846;4.388;2022-08-19T02:38:55;19.90;99.90
14519;DHT22;7346;50.846;4.388;2022-08-19T02:41:23;19.80;99.90
14519;DHT22;7346;50.846;4.388;2022-08-19T02:43:51;19.80;99.90
14519;DHT22;7346;50.846;4.388;2022-08-19T02:46:21;19.70;99.90
14519;DHT22;7346;50.846;4.388;2022-08-19T02:48:51;19.70;99.90
14519;DHT22;7346;50.846;4.388;2022-08-19T02:51:20;19.70;99.90
14519;DHT22;7346;50.846;4.388;2022-08-19T02:53:47;19.70;99.90
14519;DHT22;7346;50.846;4.388;2022-08-19T02:56:14;19.60;99.90
14519;DHT22;7346;50.846;4.388;2022-08-19T02:58:41;19.60;99.90
14519;DHT22;7346;50.846;4.388;2022-08-19T03:01:09;19.60;99.90
14519;DHT22;7346;50.846;4.388;2022-08-19T03:03:37;19.60;99.90
14519;DHT22;7346;50.846;4.388;2022-08-19T03:06:08;19.50;99.90
14519;DHT22;7346;50.846;4.388;2022-08-19T03:08:36;19.50;99.90
14519;DHT22;7346;50.846;4.388;2022-08-19T03:11:03;19.50;99.90
14519;DHT22;7346;50.846;4.388;2022-08-19T03:13:31;19.40;99.90
14519;DHT22;7346;50.846;4.388;2022-08-19T03:15:58;19.40;99.90
14519;DHT22;7346;50.846;4.388;2022-08-19T03:18:25;19.40;99.90
14519;DHT22;7346;50.846;4.388;2022-08-19T03:20:53;19.40;99.90
14519;DHT22;7346;50.846;4.388;2022-08-19T03:23:23;19.40;99.90
14519;DHT22;7346;50.846;4.388;2022-08-19T03:25:51;19.40;99.90
14519;DHT22;7346;50.846;4.388;2022-08-19T03:28:20;19.40;99.90
14519;DHT22;7346;50.846;4.388;2022-08-19T03:30:58;19.40;99.90
14519;DHT22;7346;50.846;4.388;2022-08-19T03:33:25;19.30;99.90
14519;DHT22;7346;50.846;4.388;2022-08-19T03:36:05;19.20;99.90
14519;DHT22;7346;50.846;4.388;2022-08-19T03:38:35;19.10;99.90
14519;DHT22;7346;50.846;4.388;2022-08-19T03:41:04;19.10;99.90
14519;DHT22;7346;50.846;4.388;2022-08-19T03:43:32;19.10;99.90
14519;DHT22;7346;50.846;4.388;2022-08-19T03:46:01;19.10;99.90
14519;DHT22;7346;50.846;4.388;2022-08-19T03:48:30;19.00;99.90
14519;DHT22;7346;50.846;4.388;2022-08-19T03:50:58;18.90;99.90
14519;DHT22;7346;50.846;4.388;2022-08-19T03:53:26;18.90;99.90
14519;DHT22;7346;50.846;4.388;2022-08-19T03:55:55;18.80;99.90
14519;DHT22;7346;50.846;4.388;2022-08-19T03:58:23;18.80;99.90
14519;DHT22;7346;50.846;4.388;2022-08-19T04:00:50;18.80;99.90
14519;DHT22;7346;50.846;4.388;2022-08-19T04:03:17;18.80;99.90
14519;DHT22;7346;50.846;4.388;2022-08-19T04:05:45;18.70;99.90
14519;DHT22;7346;50.846;4.388;2022-08-19T04:08:13;18.70;99.90
14519;DHT22;7346;50.846;4.388;2022-08-19T04:10:41;18.70;99.90
14519;DHT22;7346;50.846;4.388;2022-08-19T04:13:09;18.60;99.90
14519;DHT22;7346;50.846;4.388;2022-08-19T04:15:39;18.60;99.90
14519;DHT22;7346;50.846;4.388;2022-08-19T04:18:08;18.60;99.90
14519;DHT22;7346;50.846;4.388;2022-08-19T04:20:43;18.60;99.90
14519;DHT22;7346;50.846;4.388;2022-08-19T04:23:10;18.50;99.90
14519;DHT22;7346;50.846;4.388;2022-08-19T04:25:39;18.50;99.90
14519;DHT22;7346;50.846;4.388;2022-08-19T04:28:07;18.40;99.90
14519;DHT22;7346;50.846;4.388;2022-08-19T04:30:40;18.40;99.90
14519;DHT22;7346;50.846;4.388;2022-08-19T04:33:07;18.30;99.90
14519;DHT22;7346;50.846;4.388;2022-08-19T04:35:36;18.30;99.90
14519;DHT22;7346;50.846;4.388;2022-08-19T04:38:04;18.30;99.90
14519;DHT22;7346;50.846;4.388;2022-08-19T04:40:31;18.30;99.90
14519;DHT22;7346;50.846;4.388;2022-08-19T04:43:15;18.30;99.90
14519;DHT22;7346;50.846;4.388;2022-08-19T04:45:44;18.30;99.90
14519;DHT22;7346;50.846;4.388;2022-08-19T04:48:11;18.40;99.90
14519;DHT22;7346;50.846;4.388;2022-08-19T04:50:40;18.40;99.90
14519;DHT22;7346;50.846;4.388;2022-08-19T04:53:08;18.40;99.90
14519;DHT22;7346;50.846;4.388;2022-08-19T04:55:39;18.40;99.90
14519;DHT22;7346;50.846;4.388;2022-08-19T04:58:06;18.40;99.90
14519;DHT22;7346;50.846;4.388;2022-08-19T05:00:36;18.40;99.90
14519;DHT22;7346;50.846;4.388;2022-08-19T05:03:05;18.30;99.90
14519;DHT22;7346;50.846;4.388;2022-08-19T05:05:32;18.30;99.90
14519;DHT22;7346;50.846;4.388;2022-08-19T05:07:59;18.30;99.90
14519;DHT22;7346;50.846;4.388;2022-08-19T05:10:26;18.30;99.90
14519;DHT22;7346;50.846;4.388;2022-08-19T05:12:53;18.40;99.90
14519;DHT22;7346;50.846;4.388;2022-08-19T05:15:20;18.40;99.90
14519;DHT22;7346;50.846;4.388;2022-08-19T05:17:47;18.40;99.90
14519;DHT22;7346;50.846;4.388;2022-08-19T05:20:29;18.40;99.90
14519;DHT22;7346;50.846;4.388;2022-08-19T05:23:14;18.40;99.90
14519;DHT22;7346;50.846;4.388;2022-08-19T05:25:41;18.50;99.90
14519;DHT22;7346;50.846;4.388;2022-08-19T05:28:08;18.50;99.90
14519;DHT22;7346;50.846;4.388;2022-08-19T05:30:38;18.50;99.90
14519;DHT22;7346;50.846;4.388;2022-08-19T05:33:07;18.50;99.90
14519;DHT22;7346;50.846;4.388;2022-08-19T05:35:38;18.50;99.90
14519;DHT22;7346;50.846;4.388;2022-08-19T05:38:07;18.50;99.90
14519;DHT22;7346;50.846;4.388;2022-08-19T05:40:34;18.50;99.90
14519;DHT22;7346;50.846;4.388;2022-08-19T05:43:03;18.50;99.90
14519;DHT22;7346;50.846;4.388;2022-08-19T05:45:31;18.60;99.90
14519;DHT22;7346;50.846;4.388;2022-08-19T05:47:58;18.70;99.90
14519;DHT22;7346;50.846;4.388;2022-08-19T05:50:25;18.70;99.90
14519;DHT22;7346;50.846;4.388;2022-08-19T05:52:53;18.80;99.90
14519;DHT22;7346;50.846;4.388;2022-08-19T05:55:20;18.80;99.90
14519;DHT22;7346;50.846;4.388;2022-08-19T05:57:48;18.90;99.90
14519;DHT22;7346;50.846;4.388;2022-08-19T06:00:15;18.90;99.90
14519;DHT22;7346;50.846;4.388;2022-08-19T06:02:42;19.00;99.90
14519;DHT22;7346;50.846;4.388;2022-08-19T06:05:10;19.10;99.90
14519;DHT22;7346;50.846;4.388;2022-08-19T06:07:37;19.20;99.90
14519;DHT22;7346;50.846;4.388;2022-08-19T06:10:08;19.20;99.90
14519;DHT22;7346;50.846;4.388;2022-08-19T06:12:36;19.10;99.90
14519;DHT22;7346;50.846;4.388;2022-08-19T06:15:06;19.10;99.90
14519;DHT22;7346;50.846;4.388;2022-08-19T06:17:34;19.10;99.90
14519;DHT22;7346;50.846;4.388;2022-08-19T06:20:02;19.10;99.90
14519;DHT22;7346;50.846;4.388;2022-08-19T06:22:29;19.20;99.90
14519;DHT22;7346;50.846;4.388;2022-08-19T06:24:56;19.30;99.90
14519;DHT22;7346;50.846;4.388;2022-08-19T06:27:25;19.40;99.90
14519;DHT22;7346;50.846;4.388;2022-08-19T06:29:51;19.40;99.90
14519;DHT22;7346;50.846;4.388;2022-08-19T06:32:19;19.40;99.90
14519;DHT22;7346;50.846;4.388;2022-08-19T06:34:46;19.50;99.90
14519;DHT22;7346;50.846;4.388;2022-08-19T06:37:14;19.50;99.90
14519;DHT22;7346;50.846;4.388;2022-08-19T06:39:43;19.60;99.90
14519;DHT22;7346;50.846;4.388;2022-08-19T06:42:11;19.80;99.90
14519;DHT22;7346;50.846;4.388;2022-08-19T06:44:41;20.00;99.90
14519;DHT22;7346;50.846;4.388;2022-08-19T06:47:10;20.00;99.90
14519;DHT22;7346;50.846;4.388;2022-08-19T06:49:37;20.00;99.90
14519;DHT22;7346;50.846;4.388;2022-08-19T06:52:05;20.00;99.90
14519;DHT22;7346;50.846;4.388;2022-08-19T06:54:32;20.20;99.90
14519;DHT22;7346;50.846;4.388;2022-08-19T06:57:00;20.20;99.90
14519;DHT22;7346;50.846;4.388;2022-08-19T06:59:28;20.10;99.90
14519;DHT22;7346;50.846;4.388;2022-08-19T07:02:02;20.10;99.90
14519;DHT22;7346;50.846;4.388;2022-08-19T07:04:31;20.10;99.90
14519;DHT22;7346;50.846;4.388;2022-08-19T07:07:01;20.20;99.90
14519;DHT22;7346;50.846;4.388;2022-08-19T07:09:29;20.10;99.90
14519;DHT22;7346;50.846;4.388;2022-08-19T07:11:56;20.20;99.90
14519;DHT22;7346;50.846;4.388;2022-08-19T07:14:25;20.20;99.90
14519;DHT22;7346;50.846;4.388;2022-08-19T07:16:55;20.20;99.90
14519;DHT22;7346;50.846;4.388;2022-08-19T07:19:25;20.20;99.90
14519;DHT22;7346;50.846;4.388;2022-08-19T07:21:54;20.30;99.90
14519;DHT22;7346;50.846;4.388;2022-08-19T07:24:22;20.50;99.90
14519;DHT22;7346;50.846;4.388;2022-08-19T07:26:51;20.60;99.90
14519;DHT22;7346;50.846;4.388;2022-08-19T07:29:19;20.70;99.90
14519;DHT22;7346;50.846;4.388;2022-08-19T07:31:49;20.70;99.90
14519;DHT22;7346;50.846;4.388;2022-08-19T07:34:16;20.80;99.90
14519;DHT22;7346;50.846;4.388;2022-08-19T07:36:45;20.60;99.90
14519;DHT22;7346;50.846;4.388;2022-08-19T07:39:15;20.80;99.90
14519;DHT22;7346;50.846;4.388;2022-08-19T07:41:44;20.80;99.90
14519;DHT22;7346;50.846;4.388;2022-08-19T07:44:12;20.80;99.90
14519;DHT22;7346;50.846;4.388;2022-08-19T07:46:41;20.90;99.90
14519;DHT22;7346;50.846;4.388;2022-08-19T07:49:11;21.10;99.90
14519;DHT22;7346;50.846;4.388;2022-08-19T07:51:44;21.10;99.90
14519;DHT22;7346;50.846;4.388;2022-08-19T07:54:11;21.20;99.90
14519;DHT22;7346;50.846;4.388;2022-08-19T07:56:38;21.30;99.90
14519;DHT22;7346;50.846;4.388;2022-08-19T07:59:06;21.30;99.90
14519;DHT22;7346;50.846;4.388;2022-08-19T08:01:33;21.30;99.90
14519;DHT22;7346;50.846;4.388;2022-08-19T08:04:00;21.50;99.90
14519;DHT22;7346;50.846;4.388;2022-08-19T08:06:45;21.60;99.90
14519;DHT22;7346;50.846;4.388;2022-08-19T08:09:32;21.60;99.90
14519;DHT22;7346;50.846;4.388;2022-08-19T08:12:03;21.70;99.90
14519;DHT22;7346;50.846;4.388;2022-08-19T08:14:34;21.90;99.90
14519;DHT22;7346;50.846;4.388;2022-08-19T08:17:02;22.20;99.90
14519;DHT22;7346;50.846;4.388;2022-08-19T08:19:30;22.40;99.90
14519;DHT22;7346;50.846;4.388;2022-08-19T08:22:00;22.60;99.90
14519;DHT22;7346;50.846;4.388;2022-08-19T08:24:29;22.70;99.90
14519;DHT22;7346;50.846;4.388;2022-08-19T08:26:58;22.70;99.90
14519;DHT22;7346;50.846;4.388;2022-08-19T08:29:26;22.60;99.90
14519;DHT22;7346;50.846;4.388;2022-08-19T08:31:53;22.50;99.90
14519;DHT22;7346;50.846;4.388;2022-08-19T08:34:20;22.40;99.90
14519;DHT22;7346;50.846;4.388;2022-08-19T08:36:48;22.30;99.90
14519;DHT22;7346;50.846;4.388;2022-08-19T08:39:20;22.30;99.90
14519;DHT22;7346;50.846;4.388;2022-08-19T08:41:51;22.20;99.90
14519;DHT22;7346;50.846;4.388;2022-08-19T08:44:23;22.10;99.90
14519;DHT22;7346;50.846;4.388;2022-08-19T08:46:56;21.90;99.90
14519;DHT22;7346;50.846;4.388;2022-08-19T08:49:30;22.00;99.90
14519;DHT22;7346;50.846;4.388;2022-08-19T08:52:03;22.00;99.90
14519;DHT22;7346;50.846;4.388;2022-08-19T08:54:35;22.00;99.90
14519;DHT22;7346;50.846;4.388;2022-08-19T08:57:07;22.20;99.90
14519;DHT22;7346;50.846;4.388;2022-08-19T08:59:36;22.10;99.90
14519;DHT22;7346;50.846;4.388;2022-08-19T09:02:04;22.10;99.90
14519;DHT22;7346;50.846;4.388;2022-08-19T09:04:31;22.30;99.90
14519;DHT22;7346;50.846;4.388;2022-08-19T09:07:10;22.60;99.90
14519;DHT22;7346;50.846;4.388;2022-08-19T09:09:45;22.70;99.90
14519;DHT22;7346;50.846;4.388;2022-08-19T09:12:18;22.70;99.90
14519;DHT22;7346;50.846;4.388;2022-08-19T09:14:49;22.50;99.90
14519;DHT22;7346;50.846;4.388;2022-08-19T09:17:19;22.20;99.90
14519;DHT22;7346;50.846;4.388;2022-08-19T09:19:52;22.10;99.90
14519;DHT22;7346;50.846;4.388;2022-08-19T09:22:19;22.20;99.90
14519;DHT22;7346;50.846;4.388;2022-08-19T09:24:49;22.20;99.90
14519;DHT22;7346;50.846;4.388;2022-08-19T09:27:17;22.40;99.90
14519;DHT22;7346;50.846;4.388;2022-08-19T09:29:46;22.60;99.90
14519;DHT22;7346;50.846;4.388;2022-08-19T09:32:14;22.50;99.90
14519;DHT22;7346;50.846;4.388;2022-08-19T09:34:42;22.40;99.90
14519;DHT22;7346;50.846;4.388;2022-08-19T09:37:09;22.40;99.90
14519;DHT22;7346;50.846;4.388;2022-08-19T09:39:38;22.40;99.90
14519;DHT22;7346;50.846;4.388;2022-08-19T09:42:08;22.30;99.90
14519;DHT22;7346;50.846;4.388;2022-08-19T09:44:37;22.30;99.90
14519;DHT22;7346;50.846;4.388;2022-08-19T09:47:05;22.30;99.90
14519;DHT22;7346;50.846;4.388;2022-08-19T09:49:33;22.50;99.90
14519;DHT22;7346;50.846;4.388;2022-08-19T09:52:00;22.70;99.90
14519;DHT22;7346;50.846;4.388;2022-08-19T09:54:27;22.70;99.90
14519;DHT22;7346;50.846;4.388;2022-08-19T09:56:54;22.60;99.90
14519;DHT22;7346;50.846;4.388;2022-08-19T09:59:23;22.50;99.90
14519;DHT22;7346;50.846;4.388;2022-08-19T10:01:51;22.40;99.90
14519;DHT22;7346;50.846;4.388;2022-08-19T10:04:18;22.40;99.90
14519;DHT22;7346;50.846;4.388;2022-08-19T10:06:47;22.60;99.90
14519;DHT22;7346;50.846;4.388;2022-08-19T10:09:16;22.70;99.90
14519;DHT22;7346;50.846;4.388;2022-08-19T10:11:46;22.90;99.90
14519;DHT22;7346;50.846;4.388;2022-08-19T10:14:14;23.20;99.90
14519;DHT22;7346;50.846;4.388;2022-08-19T10:16:43;23.40;99.90
14519;DHT22;7346;50.846;4.388;2022-08-19T10:19:10;23.40;99.90
14519;DHT22;7346;50.846;4.388;2022-08-19T10:21:37;23.40;99.90
14519;DHT22;7346;50.846;4.388;2022-08-19T10:24:05;23.20;99.90
14519;DHT22;7346;50.846;4.388;2022-08-19T10:26:35;23.10;99.90
14519;DHT22;7346;50.846;4.388;2022-08-19T10:29:03;23.00;99.90
14519;DHT22;7346;50.846;4.388;2022-08-19T10:31:32;23.10;99.90
14519;DHT22;7346;50.846;4.388;2022-08-19T10:34:01;22.90;99.90
14519;DHT22;7346;50.846;4.388;2022-08-19T10:36:31;23.10;99.90
14519;DHT22;7346;50.846;4.388;2022-08-19T10:39:00;23.20;99.90
14519;DHT22;7346;50.846;4.388;2022-08-19T10:41:32;23.40;99.90
14519;DHT22;7346;50.846;4.388;2022-08-19T10:44:01;23.50;99.90
14519;DHT22;7346;50.846;4.388;2022-08-19T10:46:29;23.30;99.90
14519;DHT22;7346;50.846;4.388;2022-08-19T10:49:00;23.40;99.90
14519;DHT22;7346;50.846;4.388;2022-08-19T10:51:27;23.30;99.90
14519;DHT22;7346;50.846;4.388;2022-08-19T10:54:11;23.20;99.90
14519;DHT22;7346;50.846;4.388;2022-08-19T10:56:40;23.10;99.90
14519;DHT22;7346;50.846;4.388;2022-08-19T10:59:19;23.10;99.90
14519;DHT22;7346;50.846;4.388;2022-08-19T11:01:46;23.00;99.90
14519;DHT22;7346;50.846;4.388;2022-08-19T11:04:16;23.00;99.90
14519;DHT22;7346;50.846;4.388;2022-08-19T11:06:44;23.20;99.90
14519;DHT22;7346;50.846;4.388;2022-08-19T11:09:13;23.10;99.90
14519;DHT22;7346;50.846;4.388;2022-08-19T11:11:41;23.00;99.90
14519;DHT22;7346;50.846;4.388;2022-08-19T11:14:09;22.90;99.90
14519;DHT22;7346;50.846;4.388;2022-08-19T11:16:37;22.80;99.90
14519;DHT22;7346;50.846;4.388;2022-08-19T11:19:05;22.80;99.90
14519;DHT22;7346;50.846;4.388;2022-08-19T11:21:37;23.00;99.90
14519;DHT22;7346;50.846;4.388;2022-08-19T11:24:06;23.10;99.90
14519;DHT22;7346;50.846;4.388;2022-08-19T11:26:35;23.40;99.90
14519;DHT22;7346;50.846;4.388;2022-08-19T11:29:07;23.60;99.90
14519;DHT22;7346;50.846;4.388;2022-08-19T11:31:38;23.50;99.90
14519;DHT22;7346;50.846;4.388;2022-08-19T11:34:07;23.10;99.90
14519;DHT22;7346;50.846;4.388;2022-08-19T11:36:37;23.00;99.90
14519;DHT22;7346;50.846;4.388;2022-08-19T11:39:05;23.10;99.90
14519;DHT22;7346;50.846;4.388;2022-08-19T11:41:32;23.10;99.90
14519;DHT22;7346;50.846;4.388;2022-08-19T11:44:02;23.20;99.90
14519;DHT22;7346;50.846;4.388;2022-08-19T11:46:30;23.10;99.90
14519;DHT22;7346;50.846;4.388;2022-08-19T11:49:01;23.20;99.90
14519;DHT22;7346;50.846;4.388;2022-08-19T11:51:31;23.40;99.90
14519;DHT22;7346;50.846;4.388;2022-08-19T11:54:00;23.70;99.90
14519;DHT22;7346;50.846;4.388;2022-08-19T11:56:27;23.80;99.90
14519;DHT22;7346;50.846;4.388;2022-08-19T11:58:55;23.80;99.90
14519;DHT22;7346;50.846;4.388;2022-08-19T12:01:25;23.90;99.90
14519;DHT22;7346;50.846;4.388;2022-08-19T12:03:53;24.20;99.90
14519;DHT22;7346;50.846;4.388;2022-08-19T12:06:22;24.40;99.90
14519;DHT22;7346;50.846;4.388;2022-08-19T12:08:51;24.50;92.60
14519;DHT22;7346;50.846;4.388;2022-08-19T12:11:20;24.60;90.20
14519;DHT22;7346;50.846;4.388;2022-08-19T12:13:47;24.70;83.10
14519;DHT22;7346;50.846;4.388;2022-08-19T12:16:16;24.90;71.30
14519;DHT22;7346;50.846;4.388;2022-08-19T12:18:44;25.00;58.00
14519;DHT22;7346;50.846;4.388;2022-08-19T12:21:12;24.80;69.50
14519;DHT22;7346;50.846;4.388;2022-08-19T12:23:39;24.90;66.20
14519;DHT22;7346;50.846;4.388;2022-08-19T12:26:08;24.90;69.40
14519;DHT22;7346;50.846;4.388;2022-08-19T12:28:37;25.30;52.30
14519;DHT22;7346;50.846;4.388;2022-08-19T12:31:05;25.40;42.00
14519;DHT22;7346;50.846;4.388;2022-08-19T12:33:32;25.10;52.20
14519;DHT22;7346;50.846;4.388;2022-08-19T12:36:02;24.80;63.50
14519;DHT22;7346;50.846;4.388;2022-08-19T12:38:29;24.90;58.60
14519;DHT22;7346;50.846;4.388;2022-08-19T12:40:58;25.00;53.60
14519;DHT22;7346;50.846;4.388;2022-08-19T12:43:25;25.30;40.50
14519;DHT22;7346;50.846;4.388;2022-08-19T12:45:53;25.50;30.50
14519;DHT22;7346;50.846;4.388;2022-08-19T12:48:20;25.70;22.40
14519;DHT22;7346;50.846;4.388;2022-08-19T12:50:47;25.60;23.10
14519;DHT22;7346;50.846;4.388;2022-08-19T12:53:14;25.50;25.80
14519;DHT22;7346;50.846;4.388;2022-08-19T12:55:42;25.40;26.90
14519;DHT22;7346;50.846;4.388;2022-08-19T12:58:10;25.50;21.40
14519;DHT22;7346;50.846;4.388;2022-08-19T13:00:38;25.50;19.30
14519;DHT22;7346;50.846;4.388;2022-08-19T13:03:06;25.70;15.90
14519;DHT22;7346;50.846;4.388;2022-08-19T13:05:33;25.70;17.80
14519;DHT22;7346;50.846;4.388;2022-08-19T13:08:01;25.70;19.80
14519;DHT22;7346;50.846;4.388;2022-08-19T13:10:30;25.50;25.30
14519;DHT22;7346;50.846;4.388;2022-08-19T13:13:01;25.70;21.40
14519;DHT22;7346;50.846;4.388;2022-08-19T13:15:28;25.30;32.40
14519;DHT22;7346;50.846;4.388;2022-08-19T13:17:57;25.20;35.30
14519;DHT22;7346;50.846;4.388;2022-08-19T13:20:26;25.00;39.70
14519;DHT22;7346;50.846;4.388;2022-08-19T13:22:54;25.00;38.90
14519;DHT22;7346;50.846;4.388;2022-08-19T13:25:23;25.10;29.90
14519;DHT22;7346;50.846;4.388;2022-08-19T13:27:51;25.10;31.00
14519;DHT22;7346;50.846;4.388;2022-08-19T13:30:19;25.30;29.00
14519;DHT22;7346;50.846;4.388;2022-08-19T13:33:04;25.30;27.20
14519;DHT22;7346;50.846;4.388;2022-08-19T13:35:38;25.40;23.50
14519;DHT22;7346;50.846;4.388;2022-08-19T13:38:06;25.40;24.80
14519;DHT22;7346;50.846;4.388;2022-08-19T13:40:33;25.50;20.70
14519;DHT22;7346;50.846;4.388;2022-08-19T13:43:01;25.60;21.20
14519;DHT22;7346;50.846;4.388;2022-08-19T13:45:31;25.70;20.20
14519;DHT22;7346;50.846;4.388;2022-08-19T13:48:00;25.70;14.00
14519;DHT22;7346;50.846;4.388;2022-08-19T13:50:31;25.60;11.70
14519;DHT22;7346;50.846;4.388;2022-08-19T13:53:00;25.60;12.20
14519;DHT22;7346;50.846;4.388;2022-08-19T13:55:28;25.50;15.20
14519;DHT22;7346;50.846;4.388;2022-08-19T13:57:57;25.50;19.90
14519;DHT22;7346;50.846;4.388;2022-08-19T14:00:26;25.70;15.70
14519;DHT22;7346;50.846;4.388;2022-08-19T14:02:55;25.50;21.80
14519;DHT22;7346;50.846;4.388;2022-08-19T14:05:24;25.60;18.90
14519;DHT22;7346;50.846;4.388;2022-08-19T14:07:51;25.50;21.20
14519;DHT22;7346;50.846;4.388;2022-08-19T14:10:21;25.30;28.50
14519;DHT22;7346;50.846;4.388;2022-08-19T14:12:49;25.20;34.60
14519;DHT22;7346;50.846;4.388;2022-08-19T14:15:18;24.90;54.90
14519;DHT22;7346;50.846;4.388;2022-08-19T14:17:45;24.70;94.10
14519;DHT22;7346;50.846;4.388;2022-08-19T14:20:14;24.50;99.90
14519;DHT22;7346;50.846;4.388;2022-08-19T14:22:42;24.20;99.90
14519;DHT22;7346;50.846;4.388;2022-08-19T14:25:12;24.00;99.90
14519;DHT22;7346;50.846;4.388;2022-08-19T14:27:41;23.80;99.90
14519;DHT22;7346;50.846;4.388;2022-08-19T14:30:10;23.90;99.90
14519;DHT22;7346;50.846;4.388;2022-08-19T14:32:37;24.10;99.90
14519;DHT22;7346;50.846;4.388;2022-08-19T14:35:05;24.30;99.90
14519;DHT22;7346;50.846;4.388;2022-08-19T14:37:33;24.40;99.90
14519;DHT22;7346;50.846;4.388;2022-08-19T14:40:00;24.40;99.90
14519;DHT22;7346;50.846;4.388;2022-08-19T14:42:27;24.40;99.90
14519;DHT22;7346;50.846;4.388;2022-08-19T14:44:59;24.20;99.90
14519;DHT22;7346;50.846;4.388;2022-08-19T14:47:26;23.80;99.90
14519;DHT22;7346;50.846;4.388;2022-08-19T14:49:53;23.60;99.90
14519;DHT22;7346;50.846;4.388;2022-08-19T14:52:20;23.40;99.90
14519;DHT22;7346;50.846;4.388;2022-08-19T14:54:48;23.20;99.90
14519;DHT22;7346;50.846;4.388;2022-08-19T14:57:15;23.30;99.90
14519;DHT22;7346;50.846;4.388;2022-08-19T14:59:42;23.50;99.90
14519;DHT22;7346;50.846;4.388;2022-08-19T15:02:11;23.70;99.90
14519;DHT22;7346;50.846;4.388;2022-08-19T15:04:37;24.00;99.90
14519;DHT22;7346;50.846;4.388;2022-08-19T15:07:05;24.10;99.90
14519;DHT22;7346;50.846;4.388;2022-08-19T15:09:32;24.30;99.90
14519;DHT22;7346;50.846;4.388;2022-08-19T15:12:00;25.20;99.90
14519;DHT22;7346;50.846;4.388;2022-08-19T15:14:28;25.60;99.90
14519;DHT22;7346;50.846;4.388;2022-08-19T15:17:00;26.00;99.90
14519;DHT22;7346;50.846;4.388;2022-08-19T15:19:29;25.80;95.70
14519;DHT22;7346;50.846;4.388;2022-08-19T15:21:56;25.90;96.00
14519;DHT22;7346;50.846;4.388;2022-08-19T15:24:23;26.30;75.10
14519;DHT22;7346;50.846;4.388;2022-08-19T15:26:51;26.00;69.40
14519;DHT22;7346;50.846;4.388;2022-08-19T15:29:17;25.30;99.90
14519;DHT22;7346;50.846;4.388;2022-08-19T15:31:44;25.00;99.90
14519;DHT22;7346;50.846;4.388;2022-08-19T15:34:11;24.90;99.90
14519;DHT22;7346;50.846;4.388;2022-08-19T15:36:39;24.80;99.90
14519;DHT22;7346;50.846;4.388;2022-08-19T15:39:06;24.70;99.90
14519;DHT22;7346;50.846;4.388;2022-08-19T15:41:35;24.60;99.90
14519;DHT22;7346;50.846;4.388;2022-08-19T15:44:07;24.60;99.90
14519;DHT22;7346;50.846;4.388;2022-08-19T15:46:37;24.80;99.90
14519;DHT22;7346;50.846;4.388;2022-08-19T15:49:05;24.60;99.90
14519;DHT22;7346;50.846;4.388;2022-08-19T15:51:33;24.60;99.90
14519;DHT22;7346;50.846;4.388;2022-08-19T15:54:03;24.50;99.90